Time;durP1;ratioP1;P1;durP2;ratioP2;P2;SDS_P1;SDS_P2;PMS_P1;PMS_P2;Temp;Humidity;BMP_temperature;BMP_pressure;BME280_temperature;BME280_humidity;BME280_pressure;Samples;Min_cycle;Max_cycle;Signal;HPM_P1;HPM_P2
2024/02/11 00:01:08;;;;;;;54.83;19.17;;;;;;;3.41;100.00;98913.00;4971223;28;20032;-75
2024/02/11 00:03:37;;;;;;;44.85;17.80;;;;;;;3.38;100.00;98907.03;4970563;28;20073;-76
2024/02/11 00:06:04;;;;;;;45.50;19.40;;;;;;;3.51;100.00;98913.66;4970148;28;20034;-74
2024/02/11 00:08:30;;;;;;;51.58;19.35;;;;;;;3.61;100.00;98909.09;4954401;28;20041;-75
2024/02/11 00:10:56;;;;;;;;;;;;;;;3.47;100.00;98892.06;4987222;28;20034;-73
2024/02/11 00:13:21;;;;;;;52.47;17.42;;;;;;;3.49;100.00;98898.00;4986517;28;20015;-74
2024/02/11 00:15:47;;;;;;;59.58;17.23;;;;;;;3.65;100.00;98904.28;4970267;28;20038;-73
2024/02/11 00:18:12;;;;;;;62.92;19.92;;;;;;;3.57;100.00;98891.91;4970323;28;20030;-75
2024/02/11 00:20:38;;;;;;;55.05;20.70;;;;;;;3.67;100.00;98899.66;4970194;28;20030;-76
2024/02/11 00:23:04;;;;;;;47.80;16.17;;;;;;;3.62;100.00;98884.31;4995379;28;20034;-76
2024/02/11 00:25:30;;;;;;;76.05;17.88;;;;;;;3.58;100.00;98890.91;4986176;28;20034;-75
2024/02/11 00:27:58;;;;;;;42.90;15.23;;;;;;;3.41;100.00;98871.59;4970064;28;20409;-75
2024/02/11 00:30:24;;;;;;;44.88;17.92;;;;;;;3.47;100.00;98878.06;4971366;28;20034;-76
2024/02/11 00:32:51;;;;;;;;;;;;;;;3.35;100.00;98877.53;4986260;28;20038;-76
2024/02/11 00:35:17;;;;;;;51.13;15.73;;;;;;;3.47;100.00;98875.41;4969713;28;19918;-76
2024/02/11 00:37:43;;;;;;;48.67;17.45;;;;;;;3.62;100.00;98862.41;4977934;28;20042;-75
2024/02/11 00:40:10;;;;;;;45.45;18.25;;;;;;;3.71;100.00;98864.88;4999039;28;20033;-75
2024/02/11 00:42:36;;;;;;;39.10;15.13;;;;;;;3.65;100.00;98857.59;4982067;28;20036;-74
2024/02/11 00:45:01;;;;;;;47.83;15.35;;;;;;;3.37;100.00;98850.00;4997751;28;20137;-76
2024/02/11 00:47:28;;;;;;;45.08;14.80;;;;;;;3.50;100.00;98859.25;5000947;28;20038;-74
2024/02/11 00:49:55;;;;;;;51.90;17.45;;;;;;;3.74;100.00;98869.00;4985921;28;20040;-75
2024/02/11 00:52:21;;;;;;;40.47;15.23;;;;;;;3.61;100.00;98860.75;4969462;28;20544;-75
2024/02/11 00:54:46;;;;;;;41.63;12.93;;;;;;;3.58;100.00;98851.31;4977295;28;20026;-75
2024/02/11 00:57:12;;;;;;;52.45;14.57;;;;;;;3.66;100.00;98854.00;4969369;28;20409;-74
2024/02/11 00:59:40;;;;;;;57.80;15.32;;;;;;;3.59;100.00;98853.81;4969478;28;20050;-74
2024/02/11 01:02:06;;;;;;;31.40;11.93;;;;;;;3.71;100.00;98862.22;4986731;28;20054;-75
2024/02/11 01:04:32;;;;;;;37.92;13.18;;;;;;;3.65;100.00;98865.50;4985609;28;20889;-74
2024/02/11 01:06:57;;;;;;;38.35;13.27;;;;;;;3.63;100.00;98851.69;4986788;28;20065;-76
2024/02/11 01:09:26;;;;;;;36.75;14.43;;;;;;;3.74;100.00;98859.25;4975000;28;20489;-76
2024/02/11 01:11:52;;;;;;;40.17;14.30;;;;;;;3.88;100.00;98868.34;4970735;28;20314;-74
2024/02/11 01:14:21;;;;;;;42.75;14.98;;;;;;;3.68;100.00;98859.13;4992752;28;20034;-75
2024/02/11 01:16:46;;;;;;;46.33;16.15;;;;;;;3.58;100.00;98853.97;4985274;28;20709;-75
2024/02/11 01:19:12;;;;;;;42.50;12.95;;;;;;;3.77;100.00;98861.59;4988709;28;20105;-74
2024/02/11 01:21:37;;;;;;;44.40;17.20;;;;;;;3.90;100.00;98849.69;4986153;28;20150;-75
2024/02/11 01:24:03;;;;;;;35.30;14.10;;;;;;;3.90;100.00;98854.97;4986129;28;20432;-75
2024/02/11 01:26:28;;;;;;;45.65;14.02;;;;;;;3.83;100.00;98838.16;4986071;28;20042;-74
2024/02/11 01:28:53;;;;;;;43.67;13.77;;;;;;;3.74;100.00;98839.97;4969204;28;20125;-74
2024/02/11 01:31:19;;;;;;;47.70;16.83;;;;;;;3.65;100.00;98835.66;4981929;28;20113;-76
2024/02/11 01:33:44;;;;;;;54.00;17.97;;;;;;;3.68;100.00;98836.19;4965621;28;20034;-74
2024/02/11 01:36:11;;;;;;;34.47;13.90;;;;;;;3.81;100.00;98840.94;4985367;28;20626;-76
2024/02/11 01:38:38;;;;;;;38.28;15.27;;;;;;;3.74;100.00;98838.13;4969171;28;20046;-75
2024/02/11 01:41:04;;;;;;;38.22;14.35;;;;;;;3.70;100.00;98828.06;4986210;28;20026;-76
2024/02/11 01:43:29;;;;;;;41.83;15.02;;;;;;;3.33;100.00;98806.47;4969137;28;20577;-75
2024/02/11 01:45:56;;;;;;;36.30;15.13;;;;;;;3.37;100.00;98831.53;4969077;28;20422;-74
2024/02/11 01:48:22;;;;;;;46.92;15.63;;;;;;;3.37;100.00;98834.19;4994536;28;20034;-73
2024/02/11 01:50:52;;;;;;;39.05;13.98;;;;;;;3.20;100.00;98835.13;4986614;28;20042;-76
2024/02/11 01:53:21;;;;;;;44.95;16.33;;;;;;;3.32;100.00;98839.09;4985080;28;20054;-76
2024/02/11 01:55:48;;;;;;;47.22;16.48;;;;;;;3.50;100.00;98843.41;4968700;28;20815;-74
2024/02/11 01:58:14;;;;;;;41.05;16.83;;;;;;;3.56;100.00;98842.78;4986151;28;20489;-76
2024/02/11 02:00:42;;;;;;;43.42;15.65;;;;;;;3.58;100.00;98838.13;4986102;28;20034;-76
2024/02/11 02:03:09;;;;;;;39.08;15.15;;;;;;;3.61;100.00;98834.38;4985581;28;20428;-76
2024/02/11 02:05:36;;;;;;;41.40;15.20;;;;;;;3.52;100.00;98828.25;4968489;28;20045;-75
2024/02/11 02:08:03;;;;;;;43.13;17.38;;;;;;;3.29;100.00;98813.06;4988280;28;20378;-75
2024/02/11 02:10:29;;;;;;;39.33;15.50;;;;;;;3.48;100.00;98832.19;4990221;28;20040;-76
2024/02/11 02:12:55;;;;;;;37.50;14.20;;;;;;;3.54;100.00;98823.66;4994164;28;20031;-76
2024/02/11 02:15:22;;;;;;;43.90;17.13;;;;;;;3.31;100.00;98797.91;4975469;28;20046;-75
2024/02/11 02:17:48;;;;;;;39.92;16.75;;;;;;;3.40;100.00;98819.84;4984835;28;20042;-76
2024/02/11 02:20:14;;;;;;;42.65;16.77;;;;;;;3.27;100.00;98814.22;4984909;28;20037;-74
2024/02/11 02:22:41;;;;;;;;;;;;;;;3.34;100.00;98813.38;4969221;28;20038;-76
2024/02/11 02:25:07;;;;;;;42.00;15.05;;;;;;;3.24;100.00;98812.72;4968760;28;20012;-75
2024/02/11 02:27:32;;;;;;;40.83;15.85;;;;;;;3.29;100.00;98804.31;4984906;28;20125;-75
2024/02/11 02:29:57;;;;;;;51.20;17.83;;;;;;;3.34;100.00;98808.09;4986330;28;20486;-75
2024/02/11 02:32:23;;;;;;;40.70;16.08;;;;;;;3.33;100.00;98811.75;4968350;28;20375;-75
2024/02/11 02:34:50;;;;;;;46.13;17.02;;;;;;;3.57;100.00;98818.84;4986045;28;20046;-75
2024/02/11 02:37:15;;;;;;;38.13;15.20;;;;;;;3.48;100.00;98795.25;5009000;28;20127;-75
2024/02/11 02:39:40;;;;;;;38.22;15.77;;;;;;;3.45;100.00;98799.06;4992513;28;20121;-75
2024/02/11 02:42:06;;;;;;;45.88;17.58;;;;;;;3.38;100.00;98780.41;4982351;28;20041;-75
2024/02/11 02:44:31;;;;;;;41.15;15.38;;;;;;;3.64;100.00;98803.19;4993646;28;20038;-75
2024/02/11 02:46:57;;;;;;;39.15;15.88;;;;;;;3.48;100.00;98787.34;4971695;28;20404;-75
2024/02/11 02:49:23;;;;;;;39.28;14.95;;;;;;;3.30;100.00;98779.59;4977096;28;20062;-75
2024/02/11 02:51:48;;;;;;;42.25;16.42;;;;;;;3.53;100.00;98796.41;4990858;28;20504;-75
2024/02/11 02:54:14;;;;;;;35.83;14.73;;;;;;;3.56;100.00;98790.81;4973197;28;20080;-75
2024/02/11 02:56:40;;;;;;;44.10;16.02;;;;;;;3.43;100.00;98781.75;4989647;28;20648;-75
2024/02/11 02:59:08;;;;;;;44.45;16.67;;;;;;;3.32;100.00;98775.78;4971167;28;20042;-75
2024/02/11 03:01:35;;;;;;;50.22;17.10;;;;;;;3.66;100.00;98788.00;4988612;28;20042;-75
2024/02/11 03:04:01;;;;;;;43.30;17.15;;;;;;;3.64;100.00;98795.25;4986661;28;20113;-75
2024/02/11 03:06:30;;;;;;;41.47;15.10;;;;;;;3.59;100.00;98787.84;4977794;28;20034;-75
2024/02/11 03:08:56;;;;;;;47.72;19.17;;;;;;;3.47;100.00;98768.06;4987460;28;20026;-75
2024/02/11 03:11:22;;;;;;;36.42;15.57;;;;;;;3.58;100.00;98788.00;4987157;28;20100;-75
2024/02/11 03:13:47;;;;;;;44.28;17.95;;;;;;;3.48;100.00;98772.34;4971350;28;20485;-75
2024/02/11 03:16:15;;;;;;;37.38;16.38;;;;;;;3.78;100.00;98788.50;4979488;28;20026;-75
2024/02/11 03:18:42;;;;;;;43.35;16.73;;;;;;;3.57;100.00;98778.44;5003792;28;20036;-75
2024/02/11 03:21:09;;;;;;;41.83;16.95;;;;;;;3.64;100.00;98784.72;4986863;28;20494;-75
2024/02/11 03:23:37;;;;;;;33.10;15.50;;;;;;;3.75;100.00;98792.28;4986611;28;20382;-75
2024/02/11 03:26:03;;;;;;;35.10;16.05;;;;;;;3.85;100.00;98792.13;4985480;28;20026;-75
2024/02/11 03:28:29;;;;;;;37.90;16.15;;;;;;;3.63;100.00;98780.44;4994833;28;20460;-75
2024/02/11 03:30:56;;;;;;;34.00;15.23;;;;;;;3.66;100.00;98777.44;4977086;28;20038;-75
2024/02/11 03:33:22;;;;;;;30.15;13.88;;;;;;;3.69;100.00;98778.94;4981428;28;20588;-75
2024/02/11 03:35:47;;;;;;;34.15;14.05;;;;;;;3.44;100.00;98757.00;4988748;28;20041;-75
2024/02/11 03:38:15;;;;;;;35.50;15.70;;;;;;;3.76;100.00;98782.56;5005913;28;20022;-75
2024/02/11 03:40:41;;;;;;;39.67;15.07;;;;;;;3.68;100.00;98767.56;5007360;28;20689;-75
2024/02/11 03:43:07;;;;;;;32.00;14.02;;;;;;;3.86;100.00;98777.09;4989623;28;20030;-75
2024/02/11 03:45:33;;;;;;;30.48;14.48;;;;;;;3.65;100.00;98761.78;4991057;28;20549;-75
2024/02/11 03:47:58;;;;;;;39.30;14.27;;;;;;;3.72;100.00;98768.03;4972560;28;20121;-75
2024/02/11 03:50:25;;;;;;;39.03;12.68;;;;;;;3.65;100.00;98762.59;4971834;28;20073;-75
2024/02/11 03:52:51;;;;;;;31.83;14.88;;;;;;;3.74;100.00;98782.72;4995956;28;20038;-75
2024/02/11 03:55:16;;;;;;;31.48;14.10;;;;;;;3.54;100.00;98768.22;4986525;28;20049;-75
2024/02/11 03:57:42;;;;;;;36.28;14.98;;;;;;;3.76;100.00;98774.63;4985503;28;20037;-75
2024/02/11 04:00:19;;;;;;;33.78;13.82;;;;;;;3.91;100.00;98780.06;4998622;28;20054;-75
2024/02/11 04:02:44;;;;;;;33.85;13.63;;;;;;;3.69;100.00;98763.09;4981750;28;20449;-75
2024/02/11 04:05:12;;;;;;;26.73;13.30;;;;;;;3.74;100.00;98761.59;4980895;28;20018;-75
2024/02/11 04:07:44;;;;;;;29.20;12.40;;;;;;;3.65;100.00;98756.50;5006899;28;20061;-76
2024/02/11 04:10:18;;;;;;;32.75;13.60;;;;;;;3.79;100.00;98759.31;5006479;28;20048;-75
2024/02/11 04:12:44;;;;;;;25.45;12.43;;;;;;;3.73;100.00;98746.75;4989766;28;20174;-75
2024/02/11 04:15:09;;;;;;;32.28;12.10;;;;;;;3.79;100.00;98751.38;4988057;28;20022;-75
2024/02/11 04:17:36;;;;;;;37.07;14.60;;;;;;;3.40;100.00;98721.41;5006213;28;20033;-75
2024/02/11 04:20:01;;;;;;;;;;;;;;;3.76;100.00;98749.06;5006362;28;20359;-75
2024/02/11 04:22:27;;;;;;;38.63;14.93;;;;;;;3.33;100.00;98722.06;5005909;28;20364;-76
2024/02/11 04:24:54;;;;;;;45.13;14.30;;;;;;;3.44;100.00;98734.09;4998356;28;20117;-75
2024/02/11 04:27:23;;;;;;;39.58;14.65;;;;;;;3.57;100.00;98741.50;4993168;28;20042;-75
2024/02/11 04:29:50;;;;;;;46.20;15.18;;;;;;;3.75;100.00;98751.88;4986156;28;20031;-75
2024/02/11 04:32:16;;;;;;;37.92;14.30;;;;;;;3.54;100.00;98737.38;4985754;28;20081;-75
2024/02/11 04:34:42;;;;;;;43.20;15.38;;;;;;;3.55;100.00;98743.47;4969743;28;20878;-75
2024/02/11 04:37:07;;;;;;;38.53;14.68;;;;;;;3.65;100.00;98752.03;4961141;28;20047;-76
2024/02/11 04:39:33;;;;;;;49.27;13.77;;;;;;;3.57;100.00;98736.22;4986175;28;20062;-75
2024/02/11 04:41:59;;;;;;;72.00;15.88;;;;;;;3.63;100.00;98732.94;4986711;28;20273;-75
2024/02/11 04:44:27;;;;;;;43.43;15.47;;;;;;;3.64;100.00;98731.94;4988644;28;20042;-75
2024/02/11 04:46:52;;;;;;;47.72;15.55;;;;;;;3.51;100.00;98723.69;4988587;28;20034;-75
2024/02/11 04:49:19;;;;;;;42.08;15.07;;;;;;;3.66;100.00;98735.22;4992816;28;20567;-75
2024/02/11 04:51:44;;;;;;;40.13;14.52;;;;;;;3.44;100.00;98738.53;4987495;28;20031;-75
2024/02/11 04:54:09;;;;;;;39.13;15.10;;;;;;;3.41;100.00;98739.69;4986844;28;20089;-75
2024/02/11 04:56:35;;;;;;;36.75;15.32;;;;;;;3.58;100.00;98757.19;5005333;28;20037;-75
2024/02/11 04:59:03;;;;;;;39.80;15.20;;;;;;;3.71;100.00;98769.84;4996437;28;20034;-76
2024/02/11 05:01:29;;;;;;;35.15;13.70;;;;;;;3.56;100.00;98760.97;4987330;28;20412;-75
2024/02/11 05:03:54;;;;;;;39.72;14.70;;;;;;;3.50;100.00;98764.28;4987437;28;20038;-76
2024/02/11 05:06:23;;;;;;;54.20;16.30;;;;;;;3.25;100.00;98732.59;4985721;28;20050;-75
2024/02/11 05:08:55;;;;;;;43.42;14.25;;;;;;;3.50;100.00;98775.63;4993421;28;20281;-75
2024/02/11 05:11:20;;;;;;;40.42;14.93;;;;;;;3.40;100.00;98767.06;4989501;28;20041;-75
2024/02/11 05:13:45;;;;;;;49.53;15.98;;;;;;;3.10;100.00;98750.91;4987412;28;20034;-74
2024/02/11 05:16:14;;;;;;;35.73;14.47;;;;;;;3.36;100.00;98765.75;4971684;28;20604;-75
2024/02/11 05:18:42;;;;;;;39.58;14.10;;;;;;;3.42;100.00;98778.28;4987550;28;20045;-75
2024/02/11 05:21:09;;;;;;;35.78;14.25;;;;;;;3.45;100.00;98766.59;4996569;28;20113;-75
2024/02/11 05:23:36;;;;;;;51.25;15.18;;;;;;;3.32;100.00;98767.88;4989811;28;20036;-75
2024/02/11 05:26:02;;;;;;;50.90;16.35;;;;;;;3.44;100.00;98775.47;5000605;28;20079;-75
2024/02/11 05:28:29;;;;;;;46.58;16.27;;;;;;;3.14;100.00;98756.69;4985093;28;20038;-75
2024/02/11 05:30:55;;;;;;;38.10;14.80;;;;;;;3.40;100.00;98774.19;4983487;28;20146;-75
2024/02/11 05:33:22;;;;;;;34.83;14.80;;;;;;;3.30;100.00;98771.66;4984787;28;20109;-75
2024/02/11 05:35:48;;;;;;;46.20;16.60;;;;;;;3.31;100.00;98770.69;4993668;28;20042;-76
2024/02/11 05:38:14;;;;;;;46.22;16.67;;;;;;;3.28;100.00;98771.84;4989600;28;20572;-75
2024/02/11 05:40:41;;;;;;;45.35;15.32;;;;;;;3.24;100.00;98781.06;5004671;28;20061;-75
2024/02/11 05:43:12;;;;;;;48.40;16.60;;;;;;;3.19;100.00;98783.38;5003623;28;20634;-75
2024/02/11 05:45:38;;;;;;;57.10;18.02;;;;;;;3.26;100.00;98789.66;4989657;28;20058;-75
2024/02/11 05:48:04;;;;;;;;;;;;;;;3.21;100.00;98794.59;4988337;28;20041;-75
2024/02/11 05:50:29;;;;;;;53.55;18.10;;;;;;;3.34;100.00;98799.38;4958965;28;19914;-75
2024/02/11 05:52:55;;;;;;;52.03;18.73;;;;;;;3.30;100.00;98790.97;4985112;28;20066;-75
2024/02/11 05:55:21;;;;;;;40.13;17.33;;;;;;;3.30;100.00;98784.84;4969140;28;20081;-75
2024/02/11 05:57:48;;;;;;;42.35;16.48;;;;;;;3.41;100.00;98796.91;5001157;28;20140;-76
2024/02/11 06:00:18;;;;;;;45.97;17.85;;;;;;;3.29;100.00;98791.13;4988877;28;20171;-75
2024/02/11 06:02:51;;;;;;;45.67;16.70;;;;;;;3.27;100.00;98780.75;4987390;28;20026;-75
2024/02/11 06:05:17;;;;;;;53.33;19.52;;;;;;;3.27;100.00;98791.28;5004359;28;20042;-76
2024/02/11 06:07:49;;;;;;;59.95;17.17;;;;;;;3.04;100.00;98785.81;4987321;28;20060;-75
2024/02/11 06:10:16;;;;;;;45.50;16.23;;;;;;;3.08;100.00;98799.50;4974989;28;20026;-75
2024/02/11 06:12:43;;;;;;;60.30;18.58;;;;;;;3.05;100.00;98797.22;5008354;28;20030;-75
2024/02/11 06:15:10;;;;;;;53.13;18.42;;;;;;;3.18;100.00;98802.81;4998108;28;20048;-75
2024/02/11 06:17:37;;;;;;;61.45;20.52;;;;;;;3.28;100.00;98795.59;5008315;28;20049;-75
2024/02/11 06:20:14;;;;;;;50.95;19.23;;;;;;;3.37;100.00;98797.25;4980549;28;20046;-75
2024/02/11 06:22:42;;;;;;;61.53;18.58;;;;;;;3.25;100.00;98785.34;4989627;28;20027;-75
2024/02/11 06:25:08;;;;;;;58.33;18.73;;;;;;;3.15;100.00;98789.97;4972021;28;20126;-75
2024/02/11 06:27:33;;;;;;;;;;;;;;;3.35;100.00;98798.41;4988375;28;20022;-75
2024/02/11 06:29:59;;;;;;;59.60;19.30;;;;;;;3.27;100.00;98785.19;4988829;28;20301;-75
2024/02/11 06:32:25;;;;;;;52.30;17.90;;;;;;;3.34;100.00;98784.38;4991287;28;20096;-75
2024/02/11 06:34:52;;;;;;;54.20;19.20;;;;;;;3.37;100.00;98785.84;5008264;28;20033;-75
2024/02/11 06:37:17;;;;;;;61.70;18.95;;;;;;;3.05;100.00;98782.22;4988955;28;20038;-75
2024/02/11 06:39:44;;;;;;;54.33;18.40;;;;;;;3.33;100.00;98795.91;4988729;28;20116;-76
2024/02/11 06:42:10;;;;;;;54.75;20.17;;;;;;;3.40;100.00;98797.91;5004064;28;20092;-75
2024/02/11 06:44:41;;;;;;;57.63;18.95;;;;;;;3.44;100.00;98794.78;4975636;28;20034;-75
2024/02/11 06:47:09;;;;;;;56.80;19.73;;;;;;;3.40;100.00;98790.00;5004720;28;20045;-75
2024/02/11 06:49:37;;;;;;;63.40;19.42;;;;;;;3.29;100.00;98797.22;4991319;28;20030;-75
2024/02/11 06:52:03;;;;;;;50.75;19.02;;;;;;;3.56;100.00;98804.00;4987384;28;20172;-75
2024/02/11 06:54:28;;;;;;;64.60;19.63;;;;;;;3.38;100.00;98798.88;4992169;28;20125;-75
2024/02/11 06:56:54;;;;;;;68.93;18.15;;;;;;;3.34;100.00;98791.47;4985860;28;20041;-75
2024/02/11 06:59:19;;;;;;;57.33;19.88;;;;;;;3.56;100.00;98804.00;4971036;28;20045;-75
2024/02/11 07:01:45;;;;;;;51.57;18.97;;;;;;;3.65;100.00;98802.19;4996118;28;20038;-75
2024/02/11 07:04:12;;;;;;;65.95;21.42;;;;;;;3.70;100.00;98801.69;5005567;28;20038;-75
2024/02/11 07:06:46;;;;;;;59.97;18.80;;;;;;;3.57;100.00;98797.72;4982723;28;20096;-76
2024/02/11 07:09:12;;;;;;;53.80;17.10;;;;;;;3.51;100.00;98802.84;5004656;28;20521;-76
2024/02/11 07:11:39;;;;;;;54.40;18.30;;;;;;;3.39;100.00;98791.78;4976265;28;20057;-75
2024/02/11 07:14:06;;;;;;;66.75;20.65;;;;;;;3.54;100.00;98808.63;4990241;28;20042;-75
2024/02/11 07:16:32;;;;;;;52.80;18.50;;;;;;;3.70;100.00;98813.09;4962421;28;20023;-75
2024/02/11 07:18:58;;;;;;;62.95;20.30;;;;;;;3.55;100.00;98798.91;5004605;28;20038;-75
2024/02/11 07:21:23;;;;;;;48.83;18.38;;;;;;;3.65;100.00;98810.09;4995656;28;20090;-75
2024/02/11 07:23:49;;;;;;;73.80;20.93;;;;;;;3.66;100.00;98817.03;4980263;28;20032;-75
2024/02/11 07:26:14;;;;;;;69.47;19.90;;;;;;;3.70;100.00;98818.38;4992164;28;20035;-75
2024/02/11 07:28:41;;;;;;;65.78;19.23;;;;;;;3.71;100.00;98820.00;5007889;28;20037;-75
2024/02/11 07:31:09;;;;;;;68.30;18.55;;;;;;;3.71;100.00;98813.91;4990369;28;20038;-75
2024/02/11 07:33:34;;;;;;;75.18;19.58;;;;;;;3.67;100.00;98816.03;4977075;28;20034;-74
2024/02/11 07:36:00;;;;;;;74.30;21.83;;;;;;;3.61;100.00;98808.81;4988592;28;20030;-75
2024/02/11 07:38:26;;;;;;;71.80;21.95;;;;;;;3.68;100.00;98807.16;4985557;28;20289;-75
2024/02/11 07:40:53;;;;;;;76.38;22.23;;;;;;;3.35;100.00;98799.22;5004172;28;20072;-76
2024/02/11 07:43:19;;;;;;;67.72;20.25;;;;;;;3.47;100.00;98807.63;4991215;28;20054;-75
2024/02/11 07:45:44;;;;;;;75.28;21.50;;;;;;;3.53;100.00;98812.25;4991727;28;20034;-75
2024/02/11 07:48:09;;;;;;;65.93;21.25;;;;;;;3.71;100.00;98813.91;5007054;28;20036;-75
2024/02/11 07:50:36;;;;;;;90.70;20.93;;;;;;;3.74;100.00;98814.38;5007679;28;20030;-75
2024/02/11 07:53:04;;;;;;;73.97;20.77;;;;;;;3.51;100.00;98802.84;5004202;28;20335;-77
2024/02/11 07:55:31;;;;;;;62.42;19.10;;;;;;;3.60;100.00;98820.31;4992902;28;20511;-75
2024/02/11 07:58:02;;;;;;;76.18;21.85;;;;;;;3.68;100.00;98817.69;5004910;28;20037;-77
2024/02/11 08:00:31;;;;;;;75.25;21.50;;;;;;;3.75;100.00;98818.69;4994369;28;20437;-75
2024/02/11 08:02:57;;;;;;;74.93;22.27;;;;;;;3.73;100.00;98817.22;5004146;28;20556;-76
2024/02/11 08:05:22;;;;;;;52.40;18.95;;;;;;;3.72;100.00;98807.63;4999345;28;20040;-75
2024/02/11 08:07:47;;;;;;;109.27;23.33;;;;;;;3.57;100.00;98812.75;5007366;28;20034;-76
2024/02/11 08:10:13;;;;;;;68.97;21.53;;;;;;;3.58;100.00;98809.09;4989693;28;20069;-76
2024/02/11 08:12:38;;;;;;;69.53;21.88;;;;;;;3.57;100.00;98821.47;5001085;28;20340;-75
2024/02/11 08:15:04;;;;;;;71.13;20.75;;;;;;;3.62;100.00;98823.63;4992895;28;20096;-75
2024/02/11 08:17:29;;;;;;;55.58;19.80;;;;;;;3.71;100.00;98825.28;5000054;28;20460;-75
2024/02/11 08:19:55;;;;;;;67.97;20.97;;;;;;;3.78;100.00;98831.53;5007559;28;20101;-75
2024/02/11 08:22:21;;;;;;;66.73;22.43;;;;;;;3.64;100.00;98826.13;4986469;28;20979;-76
2024/02/11 08:24:46;;;;;;;57.75;19.15;;;;;;;3.90;100.00;98836.50;4985790;28;20867;-76
2024/02/11 08:27:11;;;;;;;62.73;20.17;;;;;;;3.73;100.00;98825.94;5005249;28;20049;-76
2024/02/11 08:29:36;;;;;;;56.47;19.67;;;;;;;3.60;100.00;98825.59;4983079;28;20311;-76
2024/02/11 08:32:02;;;;;;;59.70;20.63;;;;;;;3.73;100.00;98838.31;4968573;28;20344;-76
2024/02/11 08:34:27;;;;;;;68.70;22.20;;;;;;;3.75;100.00;98836.34;4984234;28;20051;-75
2024/02/11 08:36:53;;;;;;;45.17;17.93;;;;;;;3.50;100.00;98832.88;5001768;28;20034;-75
2024/02/11 08:39:19;;;;;;;61.70;21.80;;;;;;;3.57;100.00;98831.22;4994856;28;20061;-76
2024/02/11 08:41:44;;;;;;;74.93;21.40;;;;;;;3.70;100.00;98844.75;4999468;28;20096;-75
2024/02/11 08:44:11;;;;;;;56.92;19.67;;;;;;;3.59;100.00;98837.16;4986315;28;20029;-75
2024/02/11 08:46:37;;;;;;;72.78;24.27;;;;;;;3.70;100.00;98839.47;5003887;28;20034;-76
2024/02/11 08:49:03;;;;;;;52.38;19.13;;;;;;;3.84;100.00;98847.72;5000796;28;20386;-76
2024/02/11 08:51:28;;;;;;;77.22;22.70;;;;;;;3.67;100.00;98837.16;4986854;28;20037;-77
2024/02/11 08:53:54;;;;;;;67.80;22.13;;;;;;;3.53;100.00;98848.34;5002503;28;20030;-75
2024/02/11 08:56:20;;;;;;;65.35;20.85;;;;;;;3.84;100.00;98866.19;4986874;28;20295;-75
2024/02/11 08:58:45;;;;;;;;;;;;;;;3.55;100.00;98864.84;4996202;28;20040;-76
2024/02/11 09:01:11;;;;;;;60.08;20.63;;;;;;;3.69;100.00;98858.94;4984469;28;19918;-75
2024/02/11 09:03:37;;;;;;;52.78;20.35;;;;;;;3.79;100.00;98867.53;5006118;28;20033;-75
2024/02/11 09:06:05;;;;;;;62.58;21.40;;;;;;;3.80;100.00;98876.28;4979615;28;20030;-76
2024/02/11 09:08:32;;;;;;;50.15;18.05;;;;;;;3.67;100.00;98868.81;5001241;28;20040;-76
2024/02/11 09:10:57;;;;;;;61.97;20.45;;;;;;;3.43;100.00;98837.16;5006065;28;20018;-75
2024/02/11 09:13:23;;;;;;;57.38;21.10;;;;;;;3.66;100.00;98876.94;4985078;28;20034;-76
2024/02/11 09:15:49;;;;;;;;;;;;;;;3.65;100.00;98877.91;4993297;28;20042;-75
2024/02/11 09:18:19;;;;;;;62.17;22.55;;;;;;;3.62;100.00;98894.06;4971242;28;20004;-75
2024/02/11 09:20:45;;;;;;;59.88;21.02;;;;;;;3.62;100.00;98879.06;4988169;28;20050;-75
2024/02/11 09:23:10;;;;;;;46.25;19.83;;;;;;;3.41;100.00;98876.06;4994148;28;20022;-75
2024/02/11 09:25:36;;;;;;;45.38;17.83;;;;;;;3.61;100.00;98881.88;5004002;28;20025;-75
2024/02/11 09:28:02;;;;;;;48.13;21.00;;;;;;;3.64;100.00;98881.53;4986629;28;20528;-76
2024/02/11 09:30:28;;;;;;;59.40;22.33;;;;;;;3.40;100.00;98875.25;4990884;28;20115;-75
2024/02/11 09:32:54;;;;;;;46.88;18.10;;;;;;;3.62;100.00;98894.88;5000217;28;20038;-76
2024/02/11 09:35:21;;;;;;;49.22;17.50;;;;;;;3.74;100.00;98893.56;4971150;28;20052;-75
2024/02/11 09:37:46;;;;;;;47.22;19.48;;;;;;;3.67;100.00;98903.13;5005521;28;20053;-75
2024/02/11 09:40:12;;;;;;;58.65;20.98;;;;;;;3.63;100.00;98886.00;5003783;28;20497;-76
2024/02/11 09:42:37;;;;;;;50.05;20.77;;;;;;;3.67;100.00;98884.66;4975784;28;20039;-76
2024/02/11 09:45:06;;;;;;;57.83;21.08;;;;;;;3.62;100.00;98884.31;4974131;28;20050;-75
2024/02/11 09:47:33;;;;;;;50.92;17.98;;;;;;;3.76;100.00;98890.78;4995068;28;20486;-76
2024/02/11 09:50:03;;;;;;;43.60;17.35;;;;;;;3.92;100.00;98889.97;4992836;28;20061;-75
2024/02/11 09:52:29;;;;;;;53.10;19.98;;;;;;;3.70;100.00;98887.00;4996722;28;20093;-76
2024/02/11 09:54:54;;;;;;;57.78;20.23;;;;;;;3.75;100.00;98879.41;5002942;28;20544;-75
2024/02/11 09:57:20;;;;;;;50.72;18.85;;;;;;;3.70;100.00;98884.34;5007438;28;20527;-75
2024/02/11 09:59:46;;;;;;;49.72;17.55;;;;;;;3.66;100.00;98879.56;5003560;28;20033;-75
2024/02/11 10:02:18;;;;;;;43.13;19.05;;;;;;;3.74;100.00;98896.22;4981921;28;20108;-76
2024/02/11 10:04:45;;;;;;;46.30;17.98;;;;;;;3.76;100.00;98896.88;5009478;28;20040;-75
2024/02/11 10:07:24;;;;;;;58.92;21.25;;;;;;;3.59;100.00;98882.03;5009422;28;20096;-75
2024/02/11 10:09:52;;;;;;;44.13;20.20;;;;;;;3.79;100.00;98895.72;4993646;28;20058;-75
2024/02/11 10:12:19;;;;;;;47.65;20.20;;;;;;;3.71;100.00;98886.00;4990569;28;20034;-75
2024/02/11 10:14:57;;;;;;;51.00;19.67;;;;;;;3.75;100.00;98883.84;5009353;28;20496;-75
2024/02/11 10:17:23;;;;;;;50.55;18.30;;;;;;;3.86;100.00;98880.88;4966451;28;20026;-75
2024/02/11 10:19:52;;;;;;;43.38;17.13;;;;;;;3.79;100.00;98880.72;4967778;28;20096;-75
2024/02/11 10:22:18;;;;;;;53.10;18.25;;;;;;;3.62;100.00;98884.31;4999449;28;20037;-75
2024/02/11 10:24:45;;;;;;;50.17;19.58;;;;;;;3.83;100.00;98893.59;4989617;28;20030;-75
2024/02/11 10:27:10;;;;;;;43.55;19.58;;;;;;;3.66;100.00;98893.56;4967409;28;20481;-75
2024/02/11 10:29:36;;;;;;;47.65;20.85;;;;;;;3.89;100.00;98892.94;4994315;28;20037;-75
2024/02/11 10:32:04;;;;;;;52.47;20.15;;;;;;;3.73;100.00;98870.00;4973223;28;20043;-76
2024/02/11 10:34:29;;;;;;;54.15;20.98;;;;;;;3.79;100.00;98874.59;4983311;28;20042;-75
2024/02/11 10:36:55;;;;;;;62.92;21.30;;;;;;;3.72;100.00;98887.66;5001327;28;20042;-75
2024/02/11 10:39:20;;;;;;;58.50;21.17;;;;;;;3.48;100.00;98877.88;5006255;28;20045;-75
2024/02/11 10:41:45;;;;;;;53.00;22.90;;;;;;;3.78;100.00;98894.91;5004262;28;20299;-75
2024/02/11 10:44:11;;;;;;;60.53;20.95;;;;;;;3.70;100.00;98879.06;4997686;28;20034;-75
2024/02/11 10:46:37;;;;;;;57.83;22.38;;;;;;;3.63;100.00;98888.63;5000761;28;20030;-75
2024/02/11 10:49:03;;;;;;;58.25;23.13;;;;;;;3.59;100.00;98884.66;4997077;28;20065;-76
2024/02/11 10:51:32;;;;;;;58.45;22.33;;;;;;;3.83;100.00;98891.78;4996910;28;20042;-75
2024/02/11 10:54:07;;;;;;;60.03;22.95;;;;;;;3.67;100.00;98873.28;5006321;28;20694;-76
2024/02/11 10:56:35;;;;;;;58.78;21.50;;;;;;;3.77;100.00;98887.97;4993818;28;20084;-75
2024/02/11 10:59:26;;;;;;;81.60;22.15;;;;;;;3.77;100.00;98877.44;4985106;28;20025;-75
2024/02/11 11:01:55;;;;;;;68.93;26.85;;;;;;;3.77;100.00;98887.97;4969577;28;20037;-76
2024/02/11 11:04:23;;;;;;;62.17;22.48;;;;;;;3.76;100.00;98878.41;4999883;28;20181;-75
2024/02/11 11:06:51;;;;;;;77.40;26.75;;;;;;;3.64;100.00;98869.16;5003051;28;20105;-75
2024/02/11 11:09:18;;;;;;;57.22;23.02;;;;;;;3.90;100.00;98879.56;5008151;28;20042;-75
2024/02/11 11:11:44;;;;;;;66.43;22.92;;;;;;;4.04;100.00;98878.06;5006942;28;20026;-75
2024/02/11 11:14:10;;;;;;;61.75;23.98;;;;;;;3.89;100.00;98871.81;4990866;28;20030;-75
2024/02/11 11:16:41;;;;;;;68.57;25.92;;;;;;;4.10;100.00;98887.16;4990475;28;20033;-75